Rachal, Texas
Current Conditions -  °F | °C
As of 11:15 AM on Thursday 30 Oct 2014 (Local Time) from KBKS Reporting Station
Clear Clear  
Wind Chill: 78°   Ceiling: Unl
Heat Index: 81°   Visibility: 10mi
Dew Point: 69°   Wind: 0mph
Humidity: 74%   Direction: NA
Pressure: 30.1"   Gusts: NA
Location:  26.9826°N, 98.212°W
Report Text: KBKS 301615Z AUTO 00000KT 10SM CLR 26/21 A3010 RMK AO1 T02570208
Loading
Personal Weather Stations






























Interactive Weather Map New forecast layout! Learn more

10-Day Weather Forecast

Advertisements
Track Severe Weather on mobile